Time;durP1;ratioP1;P1;durP2;ratioP2;P2;SDS_P1;SDS_P2;PMS_P1;PMS_P2;Temp;Humidity;BMP_temperature;BMP_pressure;BME280_temperature;BME280_humidity;BME280_pressure;Samples;Min_cycle;Max_cycle;Signal;HPM_P1;HPM_P2
2022/03/25 00:01:55;;;;;;;;;;;22.80;25.30;;;;;;4835278;29;19995;-61
2022/03/25 00:04:22;;;;;;;;;;;22.80;25.30;;;;;;4836022;29;19940;-61
2022/03/25 00:06:49;;;;;;;;;;;22.80;25.30;;;;;;4836265;29;19936;-61
2022/03/25 00:09:16;;;;;;;;;;;22.70;25.30;;;;;;4833679;29;19932;-61
2022/03/25 00:11:43;;;;;;;;;;;22.70;25.30;;;;;;4833982;29;19929;-61
2022/03/25 00:14:11;;;;;;;;;;;22.80;25.30;;;;;;4836195;29;19933;-61
2022/03/25 00:16:38;;;;;;;;;;;22.70;25.30;;;;;;4835582;29;19935;-61
2022/03/25 00:19:05;;;;;;;;;;;22.70;25.40;;;;;;4835975;29;19936;-61
2022/03/25 00:21:32;;;;;;;;;;;22.70;25.40;;;;;;4835098;29;19932;-60
2022/03/25 00:23:59;;;;;;;;;;;22.70;25.40;;;;;;4835830;29;19929;-60
2022/03/25 00:26:26;;;;;;;;;;;22.70;25.30;;;;;;4834824;29;19936;-61
2022/03/25 00:28:53;;;;;;;;;;;22.70;25.40;;;;;;4839581;29;19928;-61
2022/03/25 00:31:20;;;;;;;;;;;22.70;25.40;;;;;;4839393;29;20374;-60
2022/03/25 00:33:51;;;;;;;;;;;22.70;25.40;;;;;;4839330;29;19958;-61
2022/03/25 00:36:19;;;;;;;;;;;22.70;25.40;;;;;;4839562;29;19932;-62
2022/03/25 00:38:46;;;;;;;;;;;22.70;25.40;;;;;;4839404;29;19929;-60
2022/03/25 00:41:13;;;;;;;;;;;22.70;25.40;;;;;;4834704;29;19928;-61
2022/03/25 00:43:42;;;;;;;;;;;22.70;25.40;;;;;;4839331;29;20378;-60
2022/03/25 00:46:11;;;;;;;;;;;22.70;25.40;;;;;;4839192;29;19950;-60
2022/03/25 00:48:38;;;;;;;;;;;22.70;25.50;;;;;;4839256;29;19954;-61
2022/03/25 00:51:05;;;;;;;;;;;22.70;25.50;;;;;;4838631;29;19936;-61
2022/03/25 00:53:32;;;;;;;;;;;22.60;25.40;;;;;;4839055;29;20326;-60
2022/03/25 00:56:03;;;;;;;;;;;22.60;25.90;;;;;;4839017;29;19977;-60
2022/03/25 00:58:30;;;;;;;;;;;22.60;25.40;;;;;;4837446;29;20184;-61
2022/03/25 01:00:57;;;;;;;;;;;22.60;25.50;;;;;;4839680;29;19929;-60
2022/03/25 01:03:25;;;;;;;;;;;22.60;25.50;;;;;;4838309;29;19935;-61
2022/03/25 01:05:52;;;;;;;;;;;22.50;25.40;;;;;;4839149;29;19929;-61
2022/03/25 01:08:19;;;;;;;;;;;22.60;25.50;;;;;;4839145;29;19955;-60
2022/03/25 01:10:46;;;;;;;;;;;22.60;25.50;;;;;;4838935;29;20415;-60
2022/03/25 01:13:13;;;;;;;;;;;22.60;25.50;;;;;;4834432;29;20180;-61
2022/03/25 01:15:41;;;;;;;;;;;22.50;25.50;;;;;;4838608;29;19975;-60
2022/03/25 01:18:08;;;;;;;;;;;22.60;25.50;;;;;;4836797;29;19928;-60
2022/03/25 01:20:35;;;;;;;;;;;22.50;25.50;;;;;;4838785;29;19928;-60
2022/03/25 01:23:02;;;;;;;;;;;22.50;25.50;;;;;;4838396;29;19929;-60
2022/03/25 01:25:29;;;;;;;;;;;22.50;25.50;;;;;;4838937;29;19928;-61
2022/03/25 01:27:56;;;;;;;;;;;22.50;25.50;;;;;;4837942;29;19939;-60
2022/03/25 01:30:24;;;;;;;;;;;22.50;25.50;;;;;;4838332;29;19928;-60
2022/03/25 01:32:51;;;;;;;;;;;22.50;25.50;;;;;;4838031;29;19940;-61
2022/03/25 01:35:24;;;;;;;;;;;22.50;25.60;;;;;;4838379;29;19929;-60
2022/03/25 01:37:51;;;;;;;;;;;22.50;25.60;;;;;;4837738;29;19944;-60
2022/03/25 01:40:18;;;;;;;;;;;22.50;25.60;;;;;;4837650;29;19928;-60
2022/03/25 01:42:45;;;;;;;;;;;22.50;25.60;;;;;;4838145;29;19932;-61
2022/03/25 01:45:12;;;;;;;;;;;22.50;25.60;;;;;;4833955;29;20293;-61
2022/03/25 01:47:40;;;;;;;;;;;22.50;25.60;;;;;;4837856;29;19954;-61
2022/03/25 01:50:16;;;;;;;;;;;22.50;25.60;;;;;;4837595;29;20200;-60
2022/03/25 01:52:43;;;;;;;;;;;22.50;25.60;;;;;;4837590;29;19929;-61
2022/03/25 01:55:15;;;;;;;;;;;22.50;25.60;;;;;;4838299;29;20371;-60
2022/03/25 01:57:43;;;;;;;;;;;22.50;25.60;;;;;;4837494;29;19932;-61
2022/03/25 02:00:12;;;;;;;;;;;22.50;25.60;;;;;;4852276;29;19928;-60
2022/03/25 02:02:39;;;;;;;;;;;22.50;25.60;;;;;;4837461;29;20370;-60
2022/03/25 02:05:07;;;;;;;;;;;22.50;25.60;;;;;;4837788;29;19928;-60
2022/03/25 02:07:34;;;;;;;;;;;22.50;25.60;;;;;;4837837;29;20366;-61
2022/03/25 02:10:01;;;;;;;;;;;22.50;25.60;;;;;;4837660;29;19928;-60
2022/03/25 02:12:28;;;;;;;;;;;22.50;25.60;;;;;;4837286;29;19976;-60
2022/03/25 02:14:58;;;;;;;;;;;22.40;25.60;;;;;;4835879;29;19929;-60
2022/03/25 02:17:25;;;;;;;;;;;22.40;25.60;;;;;;4834872;29;20279;-60
2022/03/25 02:19:52;;;;;;;;;;;22.40;25.60;;;;;;4837475;29;20250;-60
2022/03/25 02:22:19;;;;;;;;;;;22.40;25.70;;;;;;4837526;29;20001;-60
2022/03/25 02:24:47;;;;;;;;;;;22.40;25.70;;;;;;4837665;29;19937;-60
2022/03/25 02:27:16;;;;;;;;;;;22.40;25.70;;;;;;4837405;29;20158;-60
2022/03/25 02:29:44;;;;;;;;;;;22.40;25.70;;;;;;4837610;29;20359;-61
2022/03/25 02:32:11;;;;;;;;;;;22.40;25.70;;;;;;4837547;29;19968;-60
2022/03/25 02:34:39;;;;;;;;;;;22.40;25.70;;;;;;4836638;29;19928;-60
2022/03/25 02:37:06;;;;;;;;;;;22.40;25.70;;;;;;4837641;29;20474;-61
2022/03/25 02:39:33;;;;;;;;;;;22.40;25.70;;;;;;4837416;29;19937;-60
2022/03/25 02:42:00;;;;;;;;;;;22.40;25.70;;;;;;4837349;29;20023;-60
2022/03/25 02:44:27;;;;;;;;;;;22.40;25.70;;;;;;4836917;29;19974;-60
2022/03/25 02:46:54;;;;;;;;;;;22.40;25.70;;;;;;4831969;29;19929;-60
2022/03/25 02:49:22;;;;;;;;;;;22.40;25.70;;;;;;4836782;29;19932;-60
2022/03/25 02:51:48;;;;;;;;;;;22.40;25.70;;;;;;4836624;29;19958;-61
2022/03/25 02:54:15;;;;;;;;;;;22.40;25.70;;;;;;4836914;29;20019;-61
2022/03/25 02:56:42;;;;;;;;;;;22.40;25.80;;;;;;4837196;29;19929;-61
2022/03/25 02:59:09;;;;;;;;;;;22.30;25.70;;;;;;4836848;29;20541;-61
2022/03/25 03:01:37;;;;;;;;;;;22.40;25.80;;;;;;4836718;29;20442;-60
2022/03/25 03:04:04;;;;;;;;;;;22.30;25.70;;;;;;4836788;29;19929;-62
2022/03/25 03:06:31;;;;;;;;;;;22.30;25.70;;;;;;4837191;29;20019;-61
2022/03/25 03:08:58;;;;;;;;;;;22.30;25.70;;;;;;4836732;29;19992;-61
2022/03/25 03:11:25;;;;;;;;;;;22.30;25.70;;;;;;4836851;29;19983;-60
2022/03/25 03:13:52;;;;;;;;;;;22.30;25.70;;;;;;4836733;29;19928;-60
2022/03/25 03:16:19;;;;;;;;;;;22.30;25.80;;;;;;4835922;29;19987;-61
2022/03/25 03:18:46;;;;;;;;;;;22.30;25.80;;;;;;4832270;29;19987;-61
2022/03/25 03:21:13;;;;;;;;;;;22.30;25.80;;;;;;4836295;29;20019;-61
2022/03/25 03:23:40;;;;;;;;;;;22.30;25.80;;;;;;4836148;29;20011;-61
2022/03/25 03:26:07;;;;;;;;;;;22.30;25.80;;;;;;4836332;29;19996;-61
2022/03/25 03:28:35;;;;;;;;;;;22.30;25.80;;;;;;4835936;29;20125;-61
2022/03/25 03:31:02;;;;;;;;;;;22.30;25.80;;;;;;4836690;29;19979;-61
2022/03/25 03:33:29;;;;;;;;;;;22.30;25.80;;;;;;4836242;29;20283;-61
2022/03/25 03:35:56;;;;;;;;;;;22.30;25.80;;;;;;4836124;29;20032;-62
2022/03/25 03:38:23;;;;;;;;;;;22.30;25.80;;;;;;4836545;29;19999;-61
2022/03/25 03:40:50;;;;;;;;;;;22.30;25.80;;;;;;4836205;29;20039;-62
2022/03/25 03:43:17;;;;;;;;;;;22.30;25.80;;;;;;4836402;29;20025;-61
2022/03/25 03:45:44;;;;;;;;;;;22.30;25.80;;;;;;4836239;29;20633;-61
2022/03/25 03:48:11;;;;;;;;;;;22.30;25.80;;;;;;4836449;29;19936;-62
2022/03/25 03:50:38;;;;;;;;;;;22.30;25.80;;;;;;4831516;29;19964;-61
2022/03/25 03:53:05;;;;;;;;;;;22.30;25.80;;;;;;4836105;29;19961;-61
2022/03/25 03:55:33;;;;;;;;;;;22.30;25.80;;;;;;4836233;29;20454;-61
2022/03/25 03:58:00;;;;;;;;;;;22.30;25.80;;;;;;4835839;29;19967;-61
2022/03/25 04:00:27;;;;;;;;;;;22.30;25.90;;;;;;4836418;29;20344;-61
2022/03/25 04:02:55;;;;;;;;;;;22.30;25.90;;;;;;4838356;29;19980;-61
2022/03/25 04:05:23;;;;;;;;;;;22.30;25.90;;;;;;4840035;29;19977;-61
2022/03/25 04:07:50;;;;;;;;;;;22.30;25.90;;;;;;4839756;29;19976;-61
2022/03/25 04:10:17;;;;;;;;;;;22.30;26.00;;;;;;4839853;29;20336;-61
2022/03/25 04:12:45;;;;;;;;;;;22.20;25.90;;;;;;4839804;29;20317;-61
2022/03/25 04:15:12;;;;;;;;;;;22.20;26.00;;;;;;4839842;29;19929;-61
2022/03/25 04:17:41;;;;;;;;;;;22.20;26.00;;;;;;4853546;29;19945;-61
2022/03/25 04:20:08;;;;;;;;;;;22.20;26.00;;;;;;4839579;29;19976;-61
2022/03/25 04:22:35;;;;;;;;;;;22.20;26.00;;;;;;4834620;29;20383;-62
2022/03/25 04:25:05;;;;;;;;;;;22.20;26.10;;;;;;4839864;29;19976;-61
2022/03/25 04:27:33;;;;;;;;;;;22.20;26.10;;;;;;4839470;29;19977;-61
2022/03/25 04:30:00;;;;;;;;;;;22.20;26.20;;;;;;4839087;29;20402;-61
2022/03/25 04:32:28;;;;;;;;;;;22.20;26.20;;;;;;4839356;29;19984;-61
2022/03/25 04:34:55;;;;;;;;;;;22.20;26.20;;;;;;4830298;29;20023;-61
2022/03/25 04:37:22;;;;;;;;;;;22.20;26.20;;;;;;4831215;29;19972;-61
2022/03/25 04:39:49;;;;;;;;;;;22.20;26.20;;;;;;4823986;29;19990;-61
2022/03/25 04:42:15;;;;;;;;;;;22.20;26.70;;;;;;4831525;29;19972;-61
2022/03/25 04:44:42;;;;;;;;;;;22.20;26.20;;;;;;4825283;29;20558;-61
2022/03/25 04:47:09;;;;;;;;;;;22.20;26.20;;;;;;4828487;29;19968;-62
2022/03/25 04:49:36;;;;;;;;;;;22.20;26.20;;;;;;4828642;29;20024;-62
2022/03/25 04:52:03;;;;;;;;;;;22.10;26.10;;;;;;4825654;29;19979;-61
2022/03/25 04:54:30;;;;;;;;;;;22.20;26.20;;;;;;4834480;29;19928;-61
2022/03/25 04:56:57;;;;;;;;;;;22.20;26.20;;;;;;4838935;29;20120;-61
2022/03/25 04:59:24;;;;;;;;;;;22.20;26.10;;;;;;4839029;29;19979;-62
2022/03/25 05:01:51;;;;;;;;;;;22.20;26.10;;;;;;4838850;29;19928;-61
2022/03/25 05:04:18;;;;;;;;;;;22.20;26.10;;;;;;4839080;29;20333;-61
2022/03/25 05:06:45;;;;;;;;;;;22.20;26.10;;;;;;4838423;29;20060;-61
2022/03/25 05:09:13;;;;;;;;;;;22.20;26.10;;;;;;4838605;29;20479;-61
2022/03/25 05:11:41;;;;;;;;;;;22.20;26.10;;;;;;4838330;29;19956;-62
2022/03/25 05:14:08;;;;;;;;;;;22.20;26.10;;;;;;4838762;29;19928;-62
2022/03/25 05:16:35;;;;;;;;;;;22.20;26.20;;;;;;4838327;29;19960;-61
2022/03/25 05:19:02;;;;;;;;;;;22.20;26.20;;;;;;4839136;29;19928;-62
2022/03/25 05:21:29;;;;;;;;;;;22.20;26.20;;;;;;4838604;29;19928;-61
2022/03/25 05:23:56;;;;;;;;;;;22.20;26.20;;;;;;4834215;29;19928;-61
2022/03/25 05:26:23;;;;;;;;;;;22.20;26.20;;;;;;4838543;29;19929;-64
2022/03/25 05:28:50;;;;;;;;;;;22.30;26.20;;;;;;4833135;29;19972;-60
2022/03/25 05:31:17;;;;;;;;;;;22.30;26.20;;;;;;4826188;29;20079;-60
2022/03/25 05:33:45;;;;;;;;;;;22.30;26.20;;;;;;4827724;29;19935;-59
2022/03/25 05:36:12;;;;;;;;;;;22.30;26.60;;;;;;4829970;29;19972;-60
2022/03/25 05:38:39;;;;;;;;;;;22.30;26.10;;;;;;4825834;29;19967;-60
2022/03/25 05:41:07;;;;;;;;;;;22.30;26.10;;;;;;4831615;29;20480;-60
2022/03/25 05:43:34;;;;;;;;;;;22.30;26.10;;;;;;4824097;29;20043;-60
2022/03/25 05:46:03;;;;;;;;;;;22.30;26.10;;;;;;4826772;29;19929;-60
2022/03/25 05:48:30;;;;;;;;;;;22.40;26.10;;;;;;4829451;29;20404;-60
2022/03/25 05:50:57;;;;;;;;;;;22.40;26.10;;;;;;4828244;29;19932;-60
2022/03/25 05:53:24;;;;;;;;;;;22.40;26.10;;;;;;4825642;29;20069;-60
2022/03/25 05:55:51;;;;;;;;;;;22.40;26.10;;;;;;4831267;29;20199;-60
2022/03/25 05:58:18;;;;;;;;;;;22.40;26.10;;;;;;4828816;29;20470;-60
2022/03/25 06:00:45;;;;;;;;;;;22.40;26.10;;;;;;4826048;29;19979;-60
2022/03/25 06:03:12;;;;;;;;;;;22.40;26.10;;;;;;4837915;29;19952;-63
2022/03/25 06:05:39;;;;;;;;;;;22.40;26.10;;;;;;4836948;29;20318;-62
2022/03/25 06:08:07;;;;;;;;;;;22.40;26.10;;;;;;4836757;29;19929;-60
2022/03/25 06:10:34;;;;;;;;;;;22.40;26.10;;;;;;4823297;29;20405;-59
2022/03/25 06:13:01;;;;;;;;;;;22.40;26.10;;;;;;4820098;29;20928;-60
2022/03/25 06:15:29;;;;;;;;;;;22.40;26.10;;;;;;4825739;29;19929;-59
2022/03/25 06:17:56;;;;;;;;;;;22.40;26.10;;;;;;4830430;29;20019;-60
2022/03/25 06:20:23;;;;;;;;;;;22.40;26.10;;;;;;4828308;29;19976;-60
2022/03/25 06:22:50;;;;;;;;;;;22.40;26.10;;;;;;4823900;29;20025;-59
2022/03/25 06:25:17;;;;;;;;;;;22.50;26.20;;;;;;4826940;29;19960;-60
2022/03/25 06:27:46;;;;;;;;;;;22.50;26.10;;;;;;4838192;29;20387;-60
2022/03/25 06:30:13;;;;;;;;;;;22.50;26.10;;;;;;4841484;29;20015;-60
2022/03/25 06:32:41;;;;;;;;;;;22.60;26.10;;;;;;4824780;29;20417;-60
2022/03/25 06:35:08;;;;;;;;;;;22.70;26.10;;;;;;4829510;29;20031;-58
2022/03/25 06:37:36;;;;;;;;;;;22.70;26.00;;;;;;4830990;29;20614;-60
2022/03/25 06:40:07;;;;;;;;;;;22.80;26.10;;;;;;4832742;29;19968;-63
2022/03/25 06:42:34;;;;;;;;;;;22.90;26.10;;;;;;4828428;29;19935;-64
2022/03/25 06:45:03;;;;;;;;;;;22.90;26.00;;;;;;4827582;29;19928;-63
2022/03/25 06:47:30;;;;;;;;;;;23.00;26.20;;;;;;4826718;29;20682;-61
2022/03/25 06:49:58;;;;;;;;;;;23.10;26.30;;;;;;4832891;29;20343;-61
2022/03/25 06:52:25;;;;;;;;;;;23.20;26.40;;;;;;4829892;29;20335;-63
2022/03/25 06:54:52;;;;;;;;;;;23.20;26.50;;;;;;4828296;29;19932;-62
2022/03/25 06:57:20;;;;;;;;;;;23.30;26.50;;;;;;4822229;29;20286;-63
2022/03/25 06:59:47;;;;;;;;;;;23.30;26.40;;;;;;4820848;29;20380;-61
2022/03/25 07:02:18;;;;;;;;;;;23.40;26.30;;;;;;4822850;29;19983;-63
2022/03/25 07:04:45;;;;;;;;;;;23.50;26.40;;;;;;4824642;29;19947;-63
2022/03/25 07:07:13;;;;;;;;;;;23.50;26.30;;;;;;4828701;29;19932;-62
2022/03/25 07:09:40;;;;;;;;;;;23.60;26.40;;;;;;4825577;29;20803;-61
2022/03/25 07:12:08;;;;;;;;;;;23.60;26.40;;;;;;4832326;29;20035;-62
2022/03/25 07:14:35;;;;;;;;;;;23.70;26.40;;;;;;4828439;29;20350;-64
2022/03/25 07:17:02;;;;;;;;;;;23.80;26.50;;;;;;4831412;29;19928;-61
2022/03/25 07:19:29;;;;;;;;;;;23.80;26.60;;;;;;4826382;29;20282;-62
2022/03/25 07:21:56;;;;;;;;;;;23.90;26.70;;;;;;4824585;29;19967;-60
2022/03/25 07:24:23;;;;;;;;;;;23.90;26.70;;;;;;4824510;29;19937;-60
2022/03/25 07:26:51;;;;;;;;;;;24.00;26.80;;;;;;4828699;29;19932;-61
2022/03/25 07:29:18;;;;;;;;;;;24.00;26.50;;;;;;4826565;29;20031;-62
2022/03/25 07:31:45;;;;;;;;;;;24.10;26.30;;;;;;4822350;29;20015;-62
2022/03/25 07:34:12;;;;;;;;;;;24.20;25.80;;;;;;4827274;29;19940;-61
2022/03/25 07:36:39;;;;;;;;;;;24.30;25.60;;;;;;4825601;29;19967;-61
2022/03/25 07:39:06;;;;;;;;;;;24.30;25.60;;;;;;4824964;29;20075;-61
2022/03/25 07:41:34;;;;;;;;;;;24.40;25.70;;;;;;4820968;29;19929;-61
2022/03/25 07:44:01;;;;;;;;;;;24.40;25.80;;;;;;4825143;29;19928;-61
2022/03/25 07:46:28;;;;;;;;;;;24.50;25.80;;;;;;4826432;29;19972;-61
2022/03/25 07:48:55;;;;;;;;;;;24.50;25.70;;;;;;4825816;29;21398;-62
2022/03/25 07:51:23;;;;;;;;;;;24.60;25.70;;;;;;4823680;29;19933;-60
2022/03/25 07:53:50;;;;;;;;;;;24.60;25.70;;;;;;4822998;29;20055;-61
2022/03/25 07:56:17;;;;;;;;;;;24.70;25.70;;;;;;4823421;29;19968;-61
2022/03/25 07:58:44;;;;;;;;;;;24.70;25.70;;;;;;4823367;29;19972;-60
2022/03/25 08:01:11;;;;;;;;;;;24.80;25.60;;;;;;4819360;29;19985;-61
2022/03/25 08:03:39;;;;;;;;;;;24.80;25.50;;;;;;4814152;29;19943;-62
2022/03/25 08:06:08;;;;;;;;;;;24.90;25.30;;;;;;4816878;29;19933;-60
2022/03/25 08:08:36;;;;;;;;;;;24.90;25.20;;;;;;4822409;29;19936;-59
2022/03/25 08:11:03;;;;;;;;;;;25.00;25.20;;;;;;4812820;29;20024;-58
2022/03/25 08:13:30;;;;;;;;;;;25.00;25.20;;;;;;4814704;29;20417;-59
2022/03/25 08:15:57;;;;;;;;;;;25.00;25.40;;;;;;4823511;29;19932;-60
2022/03/25 08:18:25;;;;;;;;;;;25.00;25.60;;;;;;4820005;29;19928;-60
2022/03/25 08:20:53;;;;;;;;;;;24.90;25.50;;;;;;4819365;29;19968;-60
2022/03/25 08:28:57;;;;;;;;;;;24.90;25.30;;;;;;4823939;29;19960;-58
2022/03/25 08:31:45;;;;;;;;;;;24.90;25.30;;;;;;4826380;29;20412;-59
2022/03/25 08:34:15;;;;;;;;;;;24.90;25.40;;;;;;4821998;29;19960;-59
2022/03/25 08:36:43;;;;;;;;;;;24.90;25.80;;;;;;4823968;29;20417;-60
2022/03/25 08:39:10;;;;;;;;;;;24.80;25.80;;;;;;4826108;29;20136;-60
2022/03/25 08:41:37;;;;;;;;;;;24.80;26.00;;;;;;4822990;29;19959;-60
2022/03/25 08:44:06;;;;;;;;;;;24.90;26.10;;;;;;4826785;29;19943;-60
2022/03/25 08:46:34;;;;;;;;;;;24.80;26.00;;;;;;4822347;29;20358;-59
2022/03/25 08:49:05;;;;;;;;;;;24.80;25.90;;;;;;4828069;29;19936;-59
2022/03/25 08:51:32;;;;;;;;;;;24.80;25.90;;;;;;4825633;29;20362;-58
2022/03/25 08:53:59;;;;;;;;;;;24.80;26.20;;;;;;4824014;29;19976;-59
2022/03/25 08:56:27;;;;;;;;;;;24.80;25.70;;;;;;4826883;29;20390;-59
2022/03/25 08:58:55;;;;;;;;;;;24.90;25.60;;;;;;4826861;29;20544;-60
2022/03/25 09:01:22;;;;;;;;;;;24.80;25.70;;;;;;4825826;29;20026;-59
2022/03/25 09:03:49;;;;;;;;;;;24.80;25.50;;;;;;4824606;29;20297;-59
2022/03/25 09:06:17;;;;;;;;;;;24.90;25.60;;;;;;4821676;29;19943;-59
2022/03/25 09:08:44;;;;;;;;;;;24.80;25.70;;;;;;4822897;29;20334;-61
2022/03/25 09:11:12;;;;;;;;;;;24.90;25.70;;;;;;4829348;29;20366;-59
2022/03/25 09:13:40;;;;;;;;;;;24.90;25.60;;;;;;4822606;29;20390;-59
2022/03/25 09:16:07;;;;;;;;;;;24.90;25.40;;;;;;4823734;29;19933;-60
2022/03/25 09:18:34;;;;;;;;;;;24.90;25.40;;;;;;4827389;29;20398;-59
2022/03/25 09:21:01;;;;;;;;;;;24.90;25.40;;;;;;4823613;29;20413;-60
2022/03/25 09:23:29;;;;;;;;;;;24.90;25.40;;;;;;4822630;29;20529;-59
2022/03/25 09:25:57;;;;;;;;;;;24.90;25.50;;;;;;4821844;29;19980;-58
2022/03/25 09:28:24;;;;;;;;;;;24.90;25.60;;;;;;4824268;29;19983;-59
2022/03/25 09:30:53;;;;;;;;;;;24.90;25.60;;;;;;4824486;29;19936;-61
2022/03/25 09:33:19;;;;;;;;;;;25.00;25.70;;;;;;4830532;29;19936;-61
2022/03/25 09:35:47;;;;;;;;;;;25.00;25.80;;;;;;4823951;29;19932;-59
2022/03/25 09:38:14;;;;;;;;;;;25.00;25.70;;;;;;4821248;29;19980;-61
2022/03/25 09:40:41;;;;;;;;;;;25.00;25.80;;;;;;4820023;29;19936;-61
2022/03/25 09:43:08;;;;;;;;;;;25.10;25.90;;;;;;4822809;29;20027;-60
2022/03/25 09:45:36;;;;;;;;;;;25.10;25.80;;;;;;4822610;29;19972;-60
2022/03/25 09:48:05;;;;;;;;;;;25.10;25.80;;;;;;4824437;29;19984;-62
2022/03/25 09:50:36;;;;;;;;;;;25.10;25.90;;;;;;4825628;29;20428;-59
2022/03/25 09:53:04;;;;;;;;;;;25.20;25.90;;;;;;4823239;29;19943;-62
2022/03/25 09:55:36;;;;;;;;;;;25.20;25.90;;;;;;4820554;29;19937;-61
2022/03/25 09:58:03;;;;;;;;;;;25.20;25.90;;;;;;4823341;29;19981;-62
2022/03/25 10:00:31;;;;;;;;;;;25.30;25.90;;;;;;4824220;29;19947;-62
2022/03/25 10:02:58;;;;;;;;;;;25.30;25.90;;;;;;4825921;29;19971;-63
2022/03/25 10:05:25;;;;;;;;;;;25.30;25.90;;;;;;4822940;29;20310;-61
2022/03/25 10:07:56;;;;;;;;;;;25.40;25.90;;;;;;4825887;29;19936;-62
2022/03/25 10:10:24;;;;;;;;;;;25.40;25.70;;;;;;4816149;29;20347;-60
2022/03/25 10:13:00;;;;;;;;;;;25.40;25.60;;;;;;4826377;29;20027;-62
2022/03/25 10:15:29;;;;;;;;;;;25.40;25.40;;;;;;4828988;29;19932;-62
2022/03/25 10:18:04;;;;;;;;;;;25.40;25.30;;;;;;4825011;29;19994;-62
2022/03/25 10:20:34;;;;;;;;;;;25.40;25.20;;;;;;4822649;29;19932;-62
2022/03/25 10:23:20;;;;;;;;;;;25.40;25.20;;;;;;4822320;29;20740;-61
2022/03/25 10:25:53;;;;;;;;;;;25.40;25.20;;;;;;4820744;29;20015;-63
2022/03/25 10:28:29;;;;;;;;;;;25.40;25.20;;;;;;4828328;29;20385;-62
2022/03/25 10:30:59;;;;;;;;;;;25.40;25.20;;;;;;4825208;29;20634;-64
2022/03/25 10:33:28;;;;;;;;;;;25.50;25.20;;;;;;4824078;29;19928;-61
2022/03/25 10:36:00;;;;;;;;;;;25.50;25.20;;;;;;4824153;29;19944;-62
2022/03/25 10:38:40;;;;;;;;;;;25.50;25.10;;;;;;4824692;29;19937;-61
2022/03/25 10:41:08;;;;;;;;;;;25.50;24.90;;;;;;4822212;29;20023;-61
2022/03/25 10:43:46;;;;;;;;;;;25.50;24.90;;;;;;4822728;29;19963;-61
2022/03/25 10:46:30;;;;;;;;;;;25.50;24.90;;;;;;4823338;29;19939;-61
2022/03/25 10:48:58;;;;;;;;;;;25.50;25.00;;;;;;4826550;29;19932;-62
2022/03/25 10:51:26;;;;;;;;;;;25.50;25.10;;;;;;4825916;29;19932;-61
2022/03/25 10:53:57;;;;;;;;;;;25.50;25.00;;;;;;4826967;29;19937;-60
2022/03/25 10:56:24;;;;;;;;;;;25.50;24.90;;;;;;4823524;29;20030;-61
2022/03/25 10:58:53;;;;;;;;;;;25.60;25.10;;;;;;4825177;29;19992;-61
2022/03/25 11:01:20;;;;;;;;;;;25.60;25.00;;;;;;4822764;29;20431;-61
2022/03/25 11:03:51;;;;;;;;;;;25.60;24.90;;;;;;4824465;29;19944;-61
2022/03/25 11:06:19;;;;;;;;;;;25.60;24.90;;;;;;4828121;29;19936;-60
2022/03/25 11:08:46;;;;;;;;;;;25.60;24.90;;;;;;4822534;29;19932;-60
2022/03/25 11:11:14;;;;;;;;;;;25.60;24.80;;;;;;4823231;29;19976;-61
2022/03/25 11:13:45;;;;;;;;;;;25.60;24.70;;;;;;4825555;29;19986;-61
2022/03/25 11:16:16;;;;;;;;;;;25.60;24.60;;;;;;4825006;29;20405;-59
2022/03/25 11:18:44;;;;;;;;;;;25.60;24.60;;;;;;4821308;29;19955;-60
2022/03/25 11:21:11;;;;;;;;;;;25.60;24.70;;;;;;4823716;29;20023;-62
2022/03/25 11:23:44;;;;;;;;;;;25.70;24.70;;;;;;4822978;29;20376;-60
2022/03/25 11:26:14;;;;;;;;;;;25.70;24.60;;;;;;4826156;29;19932;-61
2022/03/25 11:28:42;;;;;;;;;;;25.70;24.60;;;;;;4826037;29;20023;-60
2022/03/25 11:31:09;;;;;;;;;;;25.70;24.60;;;;;;4824679;29;20027;-61
2022/03/25 11:33:56;;;;;;;;;;;25.70;24.60;;;;;;4825171;29;19998;-61
2022/03/25 11:36:24;;;;;;;;;;;25.70;24.50;;;;;;4821225;29;19991;-61
2022/03/25 11:39:11;;;;;;;;;;;25.70;24.30;;;;;;4822905;29;20569;-61
2022/03/25 11:41:38;;;;;;;;;;;25.70;24.30;;;;;;4824527;29;20031;-60
2022/03/25 11:44:18;;;;;;;;;;;25.70;24.20;;;;;;4818081;29;20048;-62
2022/03/25 11:47:05;;;;;;;;;;;25.70;24.20;;;;;;4824113;29;19946;-62
2022/03/25 11:49:33;;;;;;;;;;;25.70;24.20;;;;;;4818920;29;19939;-61
2022/03/25 11:52:19;;;;;;;;;;;25.70;24.30;;;;;;4822468;29;19963;-60
2022/03/25 11:54:55;;;;;;;;;;;25.70;24.30;;;;;;4834871;29;20007;-62
2022/03/25 11:57:24;;;;;;;;;;;25.70;24.40;;;;;;4825576;29;20026;-60
2022/03/25 11:59:52;;;;;;;;;;;25.70;24.50;;;;;;4824117;29;20314;-62
2022/03/25 12:02:23;;;;;;;;;;;25.70;23.20;;;;;;4819224;29;19932;-61
2022/03/25 12:04:51;;;;;;;;;;;25.70;23.80;;;;;;4825745;29;19936;-63
2022/03/25 12:07:18;;;;;;;;;;;25.70;24.10;;;;;;4825724;29;19939;-61
2022/03/25 12:09:46;;;;;;;;;;;25.60;24.20;;;;;;4824739;29;19933;-60
2022/03/25 12:12:13;;;;;;;;;;;25.70;24.40;;;;;;4827239;29;20015;-62
2022/03/25 12:15:01;;;;;;;;;;;25.70;24.50;;;;;;4823178;29;19944;-62
2022/03/25 12:17:28;;;;;;;;;;;25.70;24.70;;;;;;4826948;29;19979;-61
2022/03/25 12:19:55;;;;;;;;;;;25.80;24.80;;;;;;4827299;29;19955;-61
2022/03/25 12:22:28;;;;;;;;;;;25.80;24.90;;;;;;4823456;29;19977;-62
2022/03/25 12:24:56;;;;;;;;;;;25.80;24.80;;;;;;4828259;29;19939;-60
2022/03/25 12:27:23;;;;;;;;;;;25.90;25.00;;;;;;4831866;29;19979;-61
2022/03/25 12:29:51;;;;;;;;;;;25.90;25.10;;;;;;4829413;29;20080;-61
2022/03/25 12:32:20;;;;;;;;;;;25.90;25.10;;;;;;4829673;29;20377;-62
2022/03/25 12:35:05;;;;;;;;;;;26.00;25.20;;;;;;4828436;29;19987;-61
2022/03/25 12:37:37;;;;;;;;;;;26.00;25.30;;;;;;4827540;29;19992;-62
2022/03/25 12:40:15;;;;;;;;;;;26.00;25.40;;;;;;4829081;29;19995;-63
2022/03/25 12:42:42;;;;;;;;;;;26.10;25.60;;;;;;4835666;29;19956;-62
2022/03/25 12:45:10;;;;;;;;;;;26.10;25.60;;;;;;4825710;29;20387;-62
2022/03/25 12:47:44;;;;;;;;;;;26.10;25.50;;;;;;4823313;29;19948;-62
2022/03/25 12:50:15;;;;;;;;;;;26.10;25.40;;;;;;4827808;29;19940;-63
2022/03/25 12:52:42;;;;;;;;;;;26.10;25.40;;;;;;4829759;29;19932;-59
2022/03/25 12:55:12;;;;;;;;;;;26.20;25.10;;;;;;4843191;29;21533;-61
2022/03/25 12:57:40;;;;;;;;;;;26.20;25.00;;;;;;4831290;29;19929;-61
2022/03/25 13:00:08;;;;;;;;;;;26.10;24.90;;;;;;4833576;29;19997;-60
2022/03/25 13:02:39;;;;;;;;;;;26.10;24.70;;;;;;4829167;29;19947;-61
2022/03/25 13:05:08;;;;;;;;;;;26.10;25.10;;;;;;4830494;29;19928;-61
2022/03/25 13:07:35;;;;;;;;;;;26.10;24.50;;;;;;4825311;29;19928;-61
2022/03/25 13:10:02;;;;;;;;;;;26.10;24.40;;;;;;4828305;29;19940;-61
2022/03/25 13:12:32;;;;;;;;;;;26.10;24.30;;;;;;4830526;29;20618;-61
2022/03/25 13:14:59;;;;;;;;;;;26.10;24.20;;;;;;4835172;29;19933;-61
2022/03/25 13:17:33;;;;;;;;;;;26.10;24.20;;;;;;4830076;29;20032;-61
2022/03/25 13:20:00;;;;;;;;;;;26.00;24.10;;;;;;4819818;29;19994;-61
2022/03/25 13:22:27;;;;;;;;;;;26.00;24.00;;;;;;4831801;29;20022;-62
2022/03/25 13:24:55;;;;;;;;;;;26.00;24.00;;;;;;4828381;29;20150;-63
2022/03/25 13:27:22;;;;;;;;;;;26.00;23.90;;;;;;4829197;29;20086;-68
2022/03/25 13:29:51;;;;;;;;;;;26.00;23.80;;;;;;4832768;29;20027;-66
2022/03/25 13:32:31;;;;;;;;;;;26.00;23.80;;;;;;4824327;29;19935;-67
2022/03/25 13:35:03;;;;;;;;;;;26.00;24.20;;;;;;4824654;29;19928;-66
2022/03/25 13:37:30;;;;;;;;;;;26.00;23.70;;;;;;4833569;29;19936;-66
2022/03/25 13:39:57;;;;;;;;;;;26.00;23.70;;;;;;4826204;29;20255;-62
2022/03/25 13:42:31;;;;;;;;;;;25.90;23.60;;;;;;4825930;29;19964;-66
2022/03/25 13:45:06;;;;;;;;;;;25.90;23.60;;;;;;4821184;29;20437;-60
2022/03/25 13:47:34;;;;;;;;;;;25.90;23.60;;;;;;4828315;29;20027;-60
2022/03/25 13:50:15;;;;;;;;;;;25.90;23.70;;;;;;4818429;29;19943;-59
2022/03/25 13:52:52;;;;;;;;;;;26.00;23.80;;;;;;4828380;29;19980;-59
2022/03/25 13:55:20;;;;;;;;;;;26.00;23.80;;;;;;4832575;29;19986;-59
2022/03/25 13:57:55;;;;;;;;;;;26.00;23.80;;;;;;4828928;29;20008;-62
2022/03/25 14:00:29;;;;;;;;;;;26.00;23.80;;;;;;4829413;29;19976;-59
2022/03/25 14:02:57;;;;;;;;;;;26.00;23.70;;;;;;4833637;29;19936;-61
2022/03/25 14:05:25;;;;;;;;;;;26.00;23.70;;;;;;4821528;29;20027;-61
2022/03/25 14:07:54;;;;;;;;;;;26.00;24.10;;;;;;4830331;29;19993;-60
2022/03/25 14:10:21;;;;;;;;;;;26.00;23.60;;;;;;4830125;29;20031;-60
2022/03/25 14:12:59;;;;;;;;;;;26.00;23.50;;;;;;4833583;29;20385;-60
2022/03/25 14:15:35;;;;;;;;;;;26.00;23.50;;;;;;4830292;29;20020;-61
2022/03/25 14:18:23;;;;;;;;;;;26.00;23.50;;;;;;4827195;29;20031;-60
2022/03/25 14:21:00;;;;;;;;;;;26.00;23.40;;;;;;4824533;29;20366;-61
2022/03/25 14:23:27;;;;;;;;;;;26.00;23.30;;;;;;4823363;29;19928;-61
2022/03/25 14:25:54;;;;;;;;;;;26.00;23.40;;;;;;4830562;29;19975;-61
2022/03/25 14:28:22;;;;;;;;;;;26.00;23.40;;;;;;4828186;29;19985;-61
2022/03/25 14:30:51;;;;;;;;;;;26.00;23.30;;;;;;4828080;29;19933;-61